Back to top

Douglas, WY weather

Converse County Airport, Douglas, WY: 7/02/2020 12:53
Visibility10 statute milesclear sky
View 7-Day Forecast
Area Summary
Sky/CloudsSky Clear
Weather [last 24 hours]None
Pressure30.02 in.Hg (1017 hPa)
Dew Point23 °F (-5 °C)
Relative Humidity8.27 %
Temperature91.9 °F (33.3 °C)red thermometer
Reading TimeMinimum to Maximum Temperature
6-hr ending 7/2@11:5362.1 °F to 91.9 °F (16.7 °C to 33.3 °C)
6-hr ending 7/2@05:5354 °F to 64 °F (12.2 °C to 17.8 °C)
6-hr ending 7/1@23:5354 °F to 86 °F (12.2 °C to 30 °C)
6-hr ending 7/1@17:5378.1 °F to 88 °F (25.6 °C to 31.1 °C)
24-hr ending 7/2@00:5352 °F to 88 °F (11.1 °C to 31.1 °C)
Wind10.4 MPH (9 KT) gusting to 28.8 MPH (25 KT)green arrow pointing 225 degrees
Wind FromSouthwest (220 Degrees)
Last Hour's Peak Wind29.9 MPH (26 KT) on 7/2@11:58
Last Hour's Peak Wind FromWest/Southwest (240 Degrees)
Rolling 24-hr Peak Wind33.4 MPH (29 KT) on 7/1@16:48
Rolling 24-hr Peak Wind FromSouth/Southwest (210 Degrees)
Twilight Begins04:52Sunshine Yesterday
Sunrise05:27N/A
Sunset20:45
Twilight Ends21:20
METARKDGW 021853Z AUTO 22009G25KT 10SM CLR 33/M05 A3002 RMK AO2 PK WND 24026/1758 SLP099 T03331050
Tags: